Time;durP1;ratioP1;P1;durP2;ratioP2;P2;SDS_P1;SDS_P2;PMS_P1;PMS_P2;Temp;Humidity;BMP_temperature;BMP_pressure;BME280_temperature;BME280_humidity;BME280_pressure;Samples;Min_cycle;Max_cycle;Signal;HPM_P1;HPM_P2
2022/10/07 00:00:29;;;;;;;16.98;4.80;;;;;;;;;;5096493;28;20204;-66
2022/10/07 00:02:56;;;;;;;16.80;6.38;;;;;;;;;;5096351;28;20755;-66
2022/10/07 00:05:24;;;;;;;10.05;4.32;;;;;;;;;;5096195;28;20198;-66
2022/10/07 00:07:51;;;;;;;17.85;5.05;;;;;;;;;;5096585;28;20292;-66
2022/10/07 00:10:19;;;;;;;6.63;4.72;;;;;;;;;;5096395;28;20199;-66
2022/10/07 00:12:46;;;;;;;8.00;4.82;;;;;;;;;;5096593;28;20366;-65
2022/10/07 00:15:14;;;;;;;11.40;4.10;;;;;;;;;;5096736;28;20201;-65
2022/10/07 00:17:42;;;;;;;13.50;4.60;;;;;;;;;;5096298;28;20235;-66
2022/10/07 00:20:09;;;;;;;13.10;5.47;;;;;;;;;;5096326;28;20203;-66
2022/10/07 00:22:37;;;;;;;9.20;4.35;;;;;;;;;;5096159;28;20193;-66
2022/10/07 00:25:05;;;;;;;14.45;5.15;;;;;;;;;;5095952;28;20231;-66
2022/10/07 00:27:32;;;;;;;8.77;4.70;;;;;;;;;;5096083;28;20196;-66
2022/10/07 00:29:59;;;;;;;12.50;5.25;;;;;;;;;;5096378;28;20201;-66
2022/10/07 00:32:26;;;;;;;7.03;4.20;;;;;;;;;;5095575;28;20311;-66
2022/10/07 00:34:54;;;;;;;11.05;4.30;;;;;;;;;;5095849;28;20200;-68
2022/10/07 00:37:21;;;;;;;12.85;4.90;;;;;;;;;;5096012;28;20199;-66
2022/10/07 00:39:49;;;;;;;15.68;4.25;;;;;;;;;;5095639;28;20665;-66
2022/10/07 00:42:17;;;;;;;10.73;5.25;;;;;;;;;;5095953;28;20201;-66
2022/10/07 00:44:44;;;;;;;7.25;5.10;;;;;;;;;;5095584;28;20735;-66
2022/10/07 00:47:13;;;;;;;11.07;5.45;;;;;;;;;;5095565;28;20207;-66
2022/10/07 00:49:43;;;;;;;10.27;5.25;;;;;;;;;;5095763;28;20193;-66
2022/10/07 00:52:11;;;;;;;9.80;5.20;;;;;;;;;;5096029;28;20216;-66
2022/10/07 00:54:38;;;;;;;11.75;5.20;;;;;;;;;;5095298;28;20200;-66
2022/10/07 00:57:07;;;;;;;11.80;5.25;;;;;;;;;;5095526;28;20195;-66
2022/10/07 00:59:35;;;;;;;10.63;5.17;;;;;;;;;;5095756;28;20197;-66
2022/10/07 01:02:03;;;;;;;17.15;6.65;;;;;;;;;;5095516;28;20501;-66
2022/10/07 01:04:30;;;;;;;9.10;4.30;;;;;;;;;;5095464;28;20554;-66
2022/10/07 01:06:57;;;;;;;11.75;5.15;;;;;;;;;;5095023;28;20204;-66
2022/10/07 01:09:24;;;;;;;8.15;5.65;;;;;;;;;;5095023;28;20202;-66
2022/10/07 01:11:56;;;;;;;14.73;5.88;;;;;;;;;;5095236;28;20217;-66
2022/10/07 01:14:30;;;;;;;8.98;4.80;;;;;;;;;;5095730;28;20185;-65
2022/10/07 01:17:01;;;;;;;14.63;7.10;;;;;;;;;;5094904;28;20182;-65
2022/10/07 01:20:00;;;;;;;10.80;5.32;;;;;;;;;;5095690;28;20189;-65
2022/10/07 01:22:32;;;;;;;6.90;5.35;;;;;;;;;;5095135;28;20269;-66
2022/10/07 01:25:11;;;;;;;14.50;4.97;;;;;;;;;;5095366;28;20240;-65
2022/10/07 01:27:40;;;;;;;7.72;5.72;;;;;;;;;;5094646;28;20643;-66
2022/10/07 01:30:08;;;;;;;21.80;7.28;;;;;;;;;;5094472;28;20193;-65
2022/10/07 01:32:38;;;;;;;14.05;5.15;;;;;;;;;;5094389;28;20218;-66
2022/10/07 01:35:07;;;;;;;10.48;5.38;;;;;;;;;;5095313;28;20190;-65
2022/10/07 01:37:36;;;;;;;8.30;5.20;;;;;;;;;;5095032;28;20193;-66
2022/10/07 01:40:06;;;;;;;8.85;4.90;;;;;;;;;;5095061;28;20196;-66
2022/10/07 01:42:34;;;;;;;14.23;5.38;;;;;;;;;;5094642;28;20562;-66
2022/10/07 01:45:03;;;;;;;13.40;6.43;;;;;;;;;;5095112;28;20200;-66
2022/10/07 01:47:30;;;;;;;19.10;6.65;;;;;;;;;;5094274;28;20197;-66
2022/10/07 01:49:58;;;;;;;15.18;5.28;;;;;;;;;;5094267;28;20225;-66
2022/10/07 01:52:31;;;;;;;8.63;5.60;;;;;;;;;;5094043;28;20226;-65
2022/10/07 01:55:15;;;;;;;11.88;5.63;;;;;;;;;;5094348;28;20718;-65
2022/10/07 01:57:49;;;;;;;12.68;5.93;;;;;;;;;;5094400;28;20228;-65
2022/10/07 02:00:18;;;;;;;10.38;6.28;;;;;;;;;;5094449;28;20542;-66
2022/10/07 02:02:53;;;;;;;10.48;5.65;;;;;;;;;;5094273;28;20197;-66
2022/10/07 02:05:26;;;;;;;12.63;6.22;;;;;;;;;;5094411;28;20216;-65
2022/10/07 02:08:02;;;;;;;10.73;6.10;;;;;;;;;;5094251;28;20192;-66
2022/10/07 02:10:31;;;;;;;11.63;6.07;;;;;;;;;;5094824;28;20195;-66
2022/10/07 02:13:00;;;;;;;16.95;6.65;;;;;;;;;;5093752;28;20311;-65
2022/10/07 02:15:33;;;;;;;10.52;6.00;;;;;;;;;;5093772;28;20199;-65
2022/10/07 02:18:02;;;;;;;21.15;6.80;;;;;;;;;;5094221;28;20196;-65
2022/10/07 02:20:31;;;;;;;14.85;5.40;;;;;;;;;;5093761;28;20727;-66
2022/10/07 02:23:01;;;;;;;12.52;5.97;;;;;;;;;;5093692;28;20649;-66
2022/10/07 02:25:29;;;;;;;13.88;6.63;;;;;;;;;;5094602;28;20236;-66
2022/10/07 02:27:56;;;;;;;14.25;5.68;;;;;;;;;;5094139;28;20554;-66
2022/10/07 02:30:23;;;;;;;8.07;6.32;;;;;;;;;;5093866;28;20194;-66
2022/10/07 02:32:54;;;;;;;15.18;7.15;;;;;;;;;;5093387;28;20221;-66
2022/10/07 02:35:24;;;;;;;14.55;6.53;;;;;;;;;;5094154;28;20625;-65
2022/10/07 02:37:54;;;;;;;15.43;6.63;;;;;;;;;;5094548;28;20198;-65
2022/10/07 02:40:22;;;;;;;11.48;6.00;;;;;;;;;;5092665;28;20197;-66
2022/10/07 02:42:54;;;;;;;13.05;6.85;;;;;;;;;;5093979;28;20559;-66
2022/10/07 02:45:25;;;;;;;11.80;6.13;;;;;;;;;;5093854;28;20195;-66
2022/10/07 02:47:57;;;;;;;12.80;5.78;;;;;;;;;;5093698;28;20185;-66
2022/10/07 02:50:26;;;;;;;11.07;6.00;;;;;;;;;;5093402;28;20184;-66
2022/10/07 02:52:55;;;;;;;7.30;5.40;;;;;;;;;;5093490;28;20229;-66
2022/10/07 02:55:24;;;;;;;14.55;5.30;;;;;;;;;;5093739;28;20255;-66
2022/10/07 02:57:53;;;;;;;11.98;7.20;;;;;;;;;;5093457;28;20189;-66
2022/10/07 03:00:20;;;;;;;10.27;5.50;;;;;;;;;;5093228;28;20200;-66
2022/10/07 03:02:50;;;;;;;8.40;6.63;;;;;;;;;;5093475;28;20296;-66
2022/10/07 03:05:20;;;;;;;9.48;5.55;;;;;;;;;;5093257;28;20192;-66
2022/10/07 03:07:48;;;;;;;18.70;6.45;;;;;;;;;;5094180;28;20193;-66
2022/10/07 03:10:15;;;;;;;12.85;5.80;;;;;;;;;;5094058;28;20189;-66
2022/10/07 03:12:42;;;;;;;11.20;5.90;;;;;;;;;;5093044;28;20221;-66
2022/10/07 03:15:10;;;;;;;10.98;5.70;;;;;;;;;;5093834;28;20197;-66
2022/10/07 03:17:38;;;;;;;8.48;5.28;;;;;;;;;;5093099;28;20673;-66
2022/10/07 03:20:06;;;;;;;17.30;6.40;;;;;;;;;;5093426;28;20190;-65
2022/10/07 03:22:34;;;;;;;11.27;6.00;;;;;;;;;;5093257;28;20537;-66
2022/10/07 03:25:02;;;;;;;6.25;5.13;;;;;;;;;;5092817;28;20657;-66
2022/10/07 03:27:29;;;;;;;10.88;5.95;;;;;;;;;;5093322;28;20198;-66
2022/10/07 03:29:57;;;;;;;11.50;5.22;;;;;;;;;;5092895;28;20721;-66
2022/10/07 03:32:26;;;;;;;14.80;5.95;;;;;;;;;;5093350;28;20221;-66
2022/10/07 03:34:53;;;;;;;13.73;5.38;;;;;;;;;;5092817;28;20197;-66
2022/10/07 03:37:20;;;;;;;11.43;5.50;;;;;;;;;;5093262;28;20207;-66
2022/10/07 03:39:49;;;;;;;13.35;5.50;;;;;;;;;;5092797;28;20194;-66
2022/10/07 03:42:16;;;;;;;15.63;6.13;;;;;;;;;;5093393;28;20226;-66
2022/10/07 03:44:44;;;;;;;8.45;5.70;;;;;;;;;;5092727;28;20198;-67
2022/10/07 03:47:11;;;;;;;8.10;5.05;;;;;;;;;;5093179;28;20257;-65
2022/10/07 03:49:40;;;;;;;7.95;4.95;;;;;;;;;;5093005;28;20240;-66
2022/10/07 03:52:07;;;;;;;12.70;5.80;;;;;;;;;;5093765;28;20682;-66
2022/10/07 03:54:34;;;;;;;10.93;5.75;;;;;;;;;;5097099;28;20200;-66
2022/10/07 03:57:48;;;;;;;11.40;5.97;;;;;;;;;;5096851;28;20194;-65
2022/10/07 03:59:52;;;;;;;23.98;6.18;;;;;;;;;;5096242;28;20200;-66
2022/10/07 04:02:22;;;;;;;6.75;4.68;;;;;;;;;;5095418;28;20194;-66
2022/10/07 04:04:51;;;;;;;7.45;4.70;;;;;;;;;;5074966;28;20198;-66
2022/10/07 04:07:19;;;;;;;21.00;6.53;;;;;;;;;;5076186;28;20210;-66
2022/10/07 04:09:46;;;;;;;10.43;4.68;;;;;;;;;;5076120;28;20194;-66
2022/10/07 04:12:15;;;;;;;7.03;4.63;;;;;;;;;;5076091;28;20228;-67
2022/10/07 04:14:42;;;;;;;9.38;5.40;;;;;;;;;;5075653;28;20609;-66
2022/10/07 04:17:09;;;;;;;11.38;5.65;;;;;;;;;;5076312;28;20215;-66
2022/10/07 04:19:36;;;;;;;15.32;5.45;;;;;;;;;;5075941;28;20234;-65
2022/10/07 04:22:05;;;;;;;11.85;5.43;;;;;;;;;;5075972;28;20200;-66
2022/10/07 04:24:32;;;;;;;14.07;6.13;;;;;;;;;;5075798;28;20235;-66
2022/10/07 04:26:59;;;;;;;20.38;6.15;;;;;;;;;;5075849;28;20198;-66
2022/10/07 04:29:28;;;;;;;8.52;5.20;;;;;;;;;;5075760;28;20198;-66
2022/10/07 04:31:57;;;;;;;19.25;5.63;;;;;;;;;;5075369;28;20221;-65
2022/10/07 04:34:24;;;;;;;13.20;6.13;;;;;;;;;;5075686;28;20222;-65
2022/10/07 04:36:52;;;;;;;15.90;6.13;;;;;;;;;;5075564;28;20213;-66
2022/10/07 04:39:20;;;;;;;11.98;5.10;;;;;;;;;;5075612;28;20200;-66
2022/10/07 04:41:47;;;;;;;9.98;5.85;;;;;;;;;;5075667;28;20198;-66
2022/10/07 04:44:14;;;;;;;20.02;6.47;;;;;;;;;;5075535;28;20200;-65
2022/10/07 04:46:43;;;;;;;14.38;5.60;;;;;;;;;;5075371;28;20288;-65
2022/10/07 04:49:10;;;;;;;13.85;4.78;;;;;;;;;;5075153;28;20197;-66
2022/10/07 04:51:37;;;;;;;9.35;5.60;;;;;;;;;;5075559;28;20201;-66
2022/10/07 04:54:05;;;;;;;13.65;6.57;;;;;;;;;;5074833;28;20206;-66
2022/10/07 04:56:32;;;;;;;7.22;5.20;;;;;;;;;;5075001;28;20281;-66
2022/10/07 04:58:59;;;;;;;15.85;5.75;;;;;;;;;;5074828;28;20665;-66
2022/10/07 05:01:27;;;;;;;15.65;5.72;;;;;;;;;;5075509;28;20224;-66
2022/10/07 05:03:56;;;;;;;11.93;6.18;;;;;;;;;;5074331;28;20200;-66
2022/10/07 05:06:24;;;;;;;9.52;5.30;;;;;;;;;;5075280;28;20199;-66
2022/10/07 05:08:53;;;;;;;10.55;4.95;;;;;;;;;;5074842;28;20199;-65
2022/10/07 05:11:20;;;;;;;14.95;6.68;;;;;;;;;;5075117;28;20194;-65
2022/10/07 05:13:47;;;;;;;13.43;5.78;;;;;;;;;;5075605;28;20231;-68
2022/10/07 05:16:14;;;;;;;12.07;6.28;;;;;;;;;;5075008;28;20285;-68
2022/10/07 05:18:41;;;;;;;13.00;6.18;;;;;;;;;;5074746;28;20198;-64
2022/10/07 05:21:10;;;;;;;11.80;6.10;;;;;;;;;;5074789;28;20194;-65
2022/10/07 05:23:37;;;;;;;10.02;5.70;;;;;;;;;;5074608;28;20239;-65
2022/10/07 05:26:06;;;;;;;10.98;5.68;;;;;;;;;;5074567;28;20290;-65
2022/10/07 05:28:34;;;;;;;13.88;5.80;;;;;;;;;;5074555;28;20192;-65
2022/10/07 05:31:05;;;;;;;12.80;5.85;;;;;;;;;;5074398;28;20201;-65
2022/10/07 05:33:33;;;;;;;16.75;6.13;;;;;;;;;;5075476;28;20212;-65
2022/10/07 05:36:00;;;;;;;8.80;5.30;;;;;;;;;;5074677;28;20194;-65
2022/10/07 05:38:29;;;;;;;11.65;5.63;;;;;;;;;;5074776;28;20574;-65
2022/10/07 05:40:58;;;;;;;24.92;12.25;;;;;;;;;;5074505;28;20195;-65
2022/10/07 05:43:25;;;;;;;16.73;6.82;;;;;;;;;;5074673;28;20247;-65
2022/10/07 05:45:59;;;;;;;11.30;5.00;;;;;;;;;;5074268;28;20205;-65
2022/10/07 05:48:27;;;;;;;10.85;5.20;;;;;;;;;;5074047;28;20631;-65
2022/10/07 05:50:55;;;;;;;14.80;5.70;;;;;;;;;;5074229;28;20198;-65
2022/10/07 05:53:22;;;;;;;13.95;6.72;;;;;;;;;;5074471;28;20229;-65
2022/10/07 05:55:51;;;;;;;7.25;4.88;;;;;;;;;;5074399;28;20255;-65
2022/10/07 05:58:18;;;;;;;8.48;4.70;;;;;;;;;;5074453;28;20573;-65
2022/10/07 06:00:51;;;;;;;6.03;4.47;;;;;;;;;;5074159;28;20201;-65
2022/10/07 06:03:18;;;;;;;13.40;5.60;;;;;;;;;;5074135;28;20241;-66
2022/10/07 06:05:45;;;;;;;12.23;6.15;;;;;;;;;;5073668;28;20202;-66
2022/10/07 06:08:12;;;;;;;11.57;5.53;;;;;;;;;;5074085;28;20206;-66
2022/10/07 06:13:40;;;;;;;10.73;4.95;;;;;;;;;;5011929;28;20214;-66
2022/10/07 06:16:08;;;;;;;9.43;5.65;;;;;;;;;;5011768;28;20207;-66
2022/10/07 06:18:36;;;;;;;16.77;5.40;;;;;;;;;;5040188;28;20200;-65
2022/10/07 06:21:03;;;;;;;13.60;5.72;;;;;;;;;;5074004;28;20199;-66
2022/10/07 06:23:31;;;;;;;14.65;5.82;;;;;;;;;;5073563;28;21155;-66
2022/10/07 06:25:59;;;;;;;13.73;5.55;;;;;;;;;;5073816;28;20520;-66
2022/10/07 06:28:26;;;;;;;12.45;5.60;;;;;;;;;;5073756;28;20646;-65
2022/10/07 06:30:55;;;;;;;11.48;4.82;;;;;;;;;;5073600;28;20205;-66
2022/10/07 06:33:22;;;;;;;16.38;4.90;;;;;;;;;;5073363;28;20316;-66
2022/10/07 06:35:49;;;;;;;13.40;5.78;;;;;;;;;;5073265;28;20205;-66
2022/10/07 06:38:17;;;;;;;23.77;5.50;;;;;;;;;;5073748;28;20201;-66
2022/10/07 06:40:44;;;;;;;23.27;6.43;;;;;;;;;;5073219;28;20658;-66
2022/10/07 06:43:11;;;;;;;10.02;5.80;;;;;;;;;;5073600;28;20205;-65
2022/10/07 06:45:41;;;;;;;24.38;7.35;;;;;;;;;;5073475;28;20204;-66
2022/10/07 06:48:10;;;;;;;25.33;6.53;;;;;;;;;;5073510;28;20190;-66
2022/10/07 06:50:37;;;;;;;18.50;5.60;;;;;;;;;;5073150;28;20205;-66
2022/10/07 06:53:04;;;;;;;12.93;5.28;;;;;;;;;;5073040;28;20237;-66
2022/10/07 06:55:31;;;;;;;30.40;7.00;;;;;;;;;;5073054;28;20190;-66
2022/10/07 06:57:58;;;;;;;32.90;6.35;;;;;;;;;;5073129;28;20659;-66
2022/10/07 07:00:26;;;;;;;14.77;5.72;;;;;;;;;;5073010;28;20197;-66
2022/10/07 07:02:53;;;;;;;17.30;5.95;;;;;;;;;;5073093;28;20255;-66
2022/10/07 07:05:22;;;;;;;22.13;6.95;;;;;;;;;;5073411;28;20255;-65
2022/10/07 07:07:49;;;;;;;11.63;4.60;;;;;;;;;;5073273;28;20197;-65
2022/10/07 07:10:16;;;;;;;9.90;4.90;;;;;;;;;;5073303;28;20201;-65
2022/10/07 07:12:44;;;;;;;14.38;5.13;;;;;;;;;;5073011;28;20595;-65
2022/10/07 07:15:11;;;;;;;47.08;8.18;;;;;;;;;;5072799;28;20193;-66
2022/10/07 07:17:39;;;;;;;15.73;4.37;;;;;;;;;;5072657;28;20197;-65
2022/10/07 07:20:06;;;;;;;157.27;17.17;;;;;;;;;;5072827;28;20455;-65
2022/10/07 07:22:35;;;;;;;29.15;5.55;;;;;;;;;;5073171;28;20678;-66
2022/10/07 07:25:02;;;;;;;61.42;11.15;;;;;;;;;;5073463;28;20244;-65
2022/10/07 07:27:29;;;;;;;16.35;5.60;;;;;;;;;;5074508;28;20204;-65
2022/10/07 07:29:57;;;;;;;8.70;5.45;;;;;;;;;;5076811;28;20208;-65
2022/10/07 07:32:24;;;;;;;11.45;4.80;;;;;;;;;;5077194;28;20247;-66
2022/10/07 07:34:51;;;;;;;16.65;6.05;;;;;;;;;;5077220;28;20241;-65
2022/10/07 07:37:19;;;;;;;30.60;7.05;;;;;;;;;;5077117;28;20194;-65
2022/10/07 07:39:47;;;;;;;73.10;10.73;;;;;;;;;;5076937;28;20288;-65
2022/10/07 07:42:15;;;;;;;27.80;5.70;;;;;;;;;;5076780;28;20285;-65
2022/10/07 07:44:42;;;;;;;45.75;7.70;;;;;;;;;;5076569;28;20201;-65
2022/10/07 07:47:09;;;;;;;49.23;8.40;;;;;;;;;;5076664;28;20200;-65
2022/10/07 07:49:36;;;;;;;25.50;6.82;;;;;;;;;;5076750;28;20440;-66
2022/10/07 07:52:04;;;;;;;19.33;4.47;;;;;;;;;;5076671;28;20201;-65
2022/10/07 07:54:36;;;;;;;16.42;5.28;;;;;;;;;;5076806;28;20483;-65
2022/10/07 07:57:05;;;;;;;9.70;5.30;;;;;;;;;;5076356;28;20190;-65
2022/10/07 07:59:32;;;;;;;19.20;6.97;;;;;;;;;;5077089;28;20468;-66
2022/10/07 08:01:59;;;;;;;18.95;5.70;;;;;;;;;;5076530;28;20531;-65
2022/10/07 08:04:26;;;;;;;13.77;5.43;;;;;;;;;;5076181;28;20290;-66
2022/10/07 08:06:54;;;;;;;18.40;4.80;;;;;;;;;;5076373;28;20447;-66
2022/10/07 08:09:21;;;;;;;17.43;6.30;;;;;;;;;;5075899;28;20440;-66
2022/10/07 08:11:49;;;;;;;13.93;4.60;;;;;;;;;;5076168;28;20440;-66
2022/10/07 08:14:17;;;;;;;13.23;4.40;;;;;;;;;;5075784;28;20570;-65
2022/10/07 08:16:46;;;;;;;7.90;4.20;;;;;;;;;;5075850;28;20460;-66
2022/10/07 08:19:14;;;;;;;14.13;4.90;;;;;;;;;;5076205;28;20447;-65
2022/10/07 08:21:41;;;;;;;16.70;4.50;;;;;;;;;;5076289;28;20448;-66
2022/10/07 08:24:09;;;;;;;22.57;4.50;;;;;;;;;;5075934;28;20472;-66
2022/10/07 08:26:37;;;;;;;12.07;4.90;;;;;;;;;;5076108;28;20505;-66
2022/10/07 08:29:05;;;;;;;40.17;6.83;;;;;;;;;;5075766;28;20949;-66
2022/10/07 08:31:34;;;;;;;34.73;6.73;;;;;;;;;;5076241;28;20445;-65
2022/10/07 08:34:02;;;;;;;85.23;12.10;;;;;;;;;;5075941;28;20480;-65
2022/10/07 08:36:31;;;;;;;37.77;7.27;;;;;;;;;;5076053;28;20441;-65
2022/10/07 08:38:58;;;;;;;45.23;8.10;;;;;;;;;;5074244;28;20444;-65
2022/10/07 08:41:31;;;;;;;25.03;5.60;;;;;;;;;;5076283;28;20452;-65
2022/10/07 08:44:01;;;;;;;51.73;7.30;;;;;;;;;;5075542;28;20846;-65
2022/10/07 08:46:29;;;;;;;29.90;5.70;;;;;;;;;;5076104;28;20449;-65
2022/10/07 08:49:02;;;;;;;82.30;9.53;;;;;;;;;;5075693;28;20442;-66
2022/10/07 08:51:31;;;;;;;30.40;7.03;;;;;;;;;;5076102;28;20436;-65
2022/10/07 08:53:59;;;;;;;169.37;16.23;;;;;;;;;;5075416;28;20481;-66
2022/10/07 08:56:27;;;;;;;111.23;10.80;;;;;;;;;;5075618;28;20947;-65
2022/10/07 08:59:03;;;;;;;18.00;4.63;;;;;;;;;;5075451;28;20805;-66
2022/10/07 09:01:36;;;;;;;12.80;4.20;;;;;;;;;;5076223;28;20440;-65
2022/10/07 09:04:10;;;;;;;20.53;5.50;;;;;;;;;;5075402;28;20894;-65
2022/10/07 09:06:41;;;;;;;8.60;4.37;;;;;;;;;;5076066;28;20443;-65
2022/10/07 09:09:13;;;;;;;10.53;3.57;;;;;;;;;;5075250;28;20437;-66
2022/10/07 09:11:42;;;;;;;15.07;4.70;;;;;;;;;;5075817;28;20440;-66
2022/10/07 09:14:16;;;;;;;27.60;4.40;;;;;;;;;;5074977;28;20479;-65
2022/10/07 09:16:45;;;;;;;7.77;3.37;;;;;;;;;;5075156;28;20432;-65
2022/10/07 09:19:16;;;;;;;12.83;4.03;;;;;;;;;;5075100;28;20449;-66
2022/10/07 09:21:46;;;;;;;10.80;3.53;;;;;;;;;;5075575;28;20429;-65
2022/10/07 09:24:16;;;;;;;16.43;4.60;;;;;;;;;;5074505;28;20471;-65
2022/10/07 09:26:44;;;;;;;13.13;4.13;;;;;;;;;;5075056;28;20496;-66
2022/10/07 09:29:11;;;;;;;12.00;3.87;;;;;;;;;;5074744;28;20446;-66
2022/10/07 09:31:39;;;;;;;23.83;4.90;;;;;;;;;;5075126;28;20452;-66
2022/10/07 09:34:06;;;;;;;25.27;3.80;;;;;;;;;;5074311;28;20492;-65
2022/10/07 09:36:37;;;;;;;8.00;3.40;;;;;;;;;;5074779;28;20441;-65
2022/10/07 09:39:16;;;;;;;14.40;4.10;;;;;;;;;;5074662;28;20437;-65
2022/10/07 09:41:43;;;;;;;12.57;4.13;;;;;;;;;;5074757;28;20496;-65
2022/10/07 09:44:22;;;;;;;16.33;4.93;;;;;;;;;;5074148;28;20454;-65
2022/10/07 09:46:50;;;;;;;10.53;3.10;;;;;;;;;;5074618;28;20491;-65
2022/10/07 09:49:40;;;;;;;11.93;4.30;;;;;;;;;;5074144;28;20813;-66
2022/10/07 09:52:18;;;;;;;10.03;3.67;;;;;;;;;;5074476;28;20423;-66
2022/10/07 09:54:47;;;;;;;11.97;3.00;;;;;;;;;;5074292;28;20500;-66
2022/10/07 09:57:28;;;;;;;12.57;3.17;;;;;;;;;;5074306;28;20534;-65
2022/10/07 10:00:14;;;;;;;8.70;3.80;;;;;;;;;;5074238;28;20432;-65
2022/10/07 10:02:42;;;;;;;6.47;3.77;;;;;;;;;;5074315;28;20873;-65
2022/10/07 10:05:19;;;;;;;8.40;3.13;;;;;;;;;;5074098;28;20446;-65
2022/10/07 10:07:48;;;;;;;9.93;3.37;;;;;;;;;;5074290;28;20439;-65
2022/10/07 10:10:17;;;;;;;6.73;3.27;;;;;;;;;;5074048;28;20447;-65
2022/10/07 10:12:46;;;;;;;9.03;3.30;;;;;;;;;;5074592;28;20450;-65
2022/10/07 10:15:24;;;;;;;7.47;2.97;;;;;;;;;;5073791;28;20482;-65
2022/10/07 10:17:51;;;;;;;5.07;2.20;;;;;;;;;;5074004;28;20477;-65
2022/10/07 10:20:29;;;;;;;12.30;3.87;;;;;;;;;;5073870;28;20795;-65
2022/10/07 10:22:58;;;;;;;11.23;3.13;;;;;;;;;;5074196;28;20455;-65
2022/10/07 10:28:15;;;;;;;7.17;2.67;;;;;;;;;;5073522;28;20765;-66
2022/10/07 10:30:48;;;;;;;11.97;2.83;;;;;;;;;;5073812;28;20468;-65
2022/10/07 10:33:19;;;;;;;10.83;3.70;;;;;;;;;;5073477;28;20429;-66
2022/10/07 10:35:51;;;;;;;11.80;3.00;;;;;;;;;;5073575;28;21008;-65
2022/10/07 10:38:32;;;;;;;7.80;2.70;;;;;;;;;;5074371;28;20436;-66
2022/10/07 10:41:03;;;;;;;10.40;3.70;;;;;;;;;;5073732;28;20855;-65
2022/10/07 10:43:34;;;;;;;9.70;2.63;;;;;;;;;;5073749;28;20437;-65
2022/10/07 10:46:14;;;;;;;11.17;3.00;;;;;;;;;;5074254;28;20430;-66
2022/10/07 10:48:45;;;;;;;10.23;3.13;;;;;;;;;;5073651;28;20888;-65
2022/10/07 10:51:24;;;;;;;6.33;3.23;;;;;;;;;;5073781;28;20496;-65
2022/10/07 10:53:58;;;;;;;14.53;3.30;;;;;;;;;;5073599;28;20759;-66
2022/10/07 10:56:33;;;;;;;7.47;2.80;;;;;;;;;;5073275;28;20813;-65
2022/10/07 10:59:08;;;;;;;7.43;3.20;;;;;;;;;;5073073;28;20520;-66
2022/10/07 11:01:37;;;;;;;10.50;3.00;;;;;;;;;;5072658;28;20518;-66
2022/10/07 11:04:12;;;;;;;14.73;4.30;;;;;;;;;;5073329;28;20496;-65
2022/10/07 11:06:40;;;;;;;10.63;2.83;;;;;;;;;;5073142;28;20435;-65
2022/10/07 11:09:12;;;;;;;6.07;2.73;;;;;;;;;;5072891;28;20458;-66
2022/10/07 11:11:40;;;;;;;4.83;2.33;;;;;;;;;;5073618;28;20430;-65
2022/10/07 11:14:12;;;;;;;7.83;2.50;;;;;;;;;;5073146;28;20480;-66
2022/10/07 11:16:41;;;;;;;7.23;3.27;;;;;;;;;;5073338;28;20430;-65
2022/10/07 11:19:12;;;;;;;10.67;3.50;;;;;;;;;;5073290;28;20442;-67
2022/10/07 11:21:42;;;;;;;13.90;3.13;;;;;;;;;;5073226;28;20856;-65
2022/10/07 11:24:14;;;;;;;8.93;3.10;;;;;;;;;;5072849;28;20478;-66
2022/10/07 11:26:43;;;;;;;9.40;3.50;;;;;;;;;;5072837;28;20505;-65
2022/10/07 11:29:15;;;;;;;12.17;3.10;;;;;;;;;;5073032;28;20456;-66
2022/10/07 11:31:46;;;;;;;12.93;4.00;;;;;;;;;;5073151;28;20439;-66
2022/10/07 11:34:17;;;;;;;10.27;3.40;;;;;;;;;;5073070;28;20469;-66
2022/10/07 11:36:48;;;;;;;7.10;2.40;;;;;;;;;;5072730;28;20927;-65
2022/10/07 11:39:16;;;;;;;8.00;2.63;;;;;;;;;;5072750;28;20523;-66
2022/10/07 11:41:48;;;;;;;7.67;2.83;;;;;;;;;;5072744;28;20525;-65
2022/10/07 11:44:18;;;;;;;6.07;2.77;;;;;;;;;;5072641;28;20443;-66
2022/10/07 11:46:46;;;;;;;9.03;3.27;;;;;;;;;;5072695;28;20454;-65
2022/10/07 11:49:17;;;;;;;12.93;2.93;;;;;;;;;;5072940;28;20451;-66
2022/10/07 11:51:50;;;;;;;13.70;3.47;;;;;;;;;;5073174;28;20427;-65
2022/10/07 11:54:21;;;;;;;9.30;2.60;;;;;;;;;;5072879;28;20476;-66
2022/10/07 11:56:50;;;;;;;12.97;3.00;;;;;;;;;;5073163;28;20482;-65
2022/10/07 11:59:33;;;;;;;7.63;2.87;;;;;;;;;;5072499;28;20535;-65
2022/10/07 12:02:00;;;;;;;11.70;3.07;;;;;;;;;;5072570;28;20515;-65
2022/10/07 12:04:45;;;;;;;15.00;3.53;;;;;;;;;;5072714;28;20461;-66
2022/10/07 12:07:31;;;;;;;8.67;3.37;;;;;;;;;;5072977;28;20435;-64
2022/10/07 12:10:18;;;;;;;9.13;3.37;;;;;;;;;;5072394;28;20450;-66
2022/10/07 12:12:53;;;;;;;8.67;3.30;;;;;;;;;;5073238;28;20448;-64
2022/10/07 12:15:30;;;;;;;15.03;4.73;;;;;;;;;;5076002;28;20839;-65
2022/10/07 12:18:17;;;;;;;8.40;3.07;;;;;;;;;;5076399;28;20801;-65
2022/10/07 12:20:46;;;;;;;8.83;3.50;;;;;;;;;;5076409;28;20426;-65
2022/10/07 12:23:33;;;;;;;9.70;3.47;;;;;;;;;;5076302;28;20473;-65
2022/10/07 12:26:01;;;;;;;8.53;4.27;;;;;;;;;;5076477;28;20793;-65
2022/10/07 12:28:33;;;;;;;6.43;3.00;;;;;;;;;;5076098;28;20446;-65
2022/10/07 12:31:02;;;;;;;13.13;3.40;;;;;;;;;;5076019;28;20772;-65
2022/10/07 12:33:33;;;;;;;12.63;3.20;;;;;;;;;;5075931;28;20539;-65
2022/10/07 12:36:24;;;;;;;8.30;3.20;;;;;;;;;;5075440;28;20974;-65
2022/10/07 12:39:21;;;;;;;6.20;3.10;;;;;;;;;;5075509;28;20437;-66
2022/10/07 12:41:49;;;;;;;8.90;3.50;;;;;;;;;;5075533;28;20445;-69
2022/10/07 12:44:18;;;;;;;9.53;3.13;;;;;;;;;;5075635;28;20446;-67
2022/10/07 12:46:50;;;;;;;8.20;3.30;;;;;;;;;;5075208;28;20941;-67
2022/10/07 12:49:21;;;;;;;12.50;2.97;;;;;;;;;;5075920;28;20525;-67
2022/10/07 12:51:49;;;;;;;14.53;3.60;;;;;;;;;;5075187;28;20426;-66
2022/10/07 12:54:19;;;;;;;9.73;3.53;;;;;;;;;;5075366;28;20444;-67
2022/10/07 12:56:47;;;;;;;10.70;4.00;;;;;;;;;;5075478;28;20449;-65
2022/10/07 13:02:24;;;;;;;9.57;3.77;;;;;;;;;;5075096;28;20399;-67
2022/10/07 13:04:58;;;;;;;7.83;3.40;;;;;;;;;;5075347;28;20487;-68
2022/10/07 13:07:44;;;;;;;13.97;4.07;;;;;;;;;;5075216;28;20529;-67
2022/10/07 13:10:21;;;;;;;11.57;4.20;;;;;;;;;;5075236;28;20537;-67
2022/10/07 13:12:50;;;;;;;14.87;4.40;;;;;;;;;;5075127;28;20439;-67
2022/10/07 13:15:32;;;;;;;10.80;3.50;;;;;;;;;;5068273;28;20768;-67
2022/10/07 13:18:03;;;;;;;13.50;3.70;;;;;;;;;;5074441;28;20446;-67
2022/10/07 13:20:38;;;;;;;7.80;3.00;;;;;;;;;;5074897;28;20925;-67
2022/10/07 13:23:06;;;;;;;10.63;4.40;;;;;;;;;;5074895;28;20452;-67
2022/10/07 13:25:35;;;;;;;8.20;3.13;;;;;;;;;;5073845;28;20451;-67
2022/10/07 13:28:02;;;;;;;10.50;3.70;;;;;;;;;;5074668;28;20526;-67
2022/10/07 13:30:34;;;;;;;11.20;3.30;;;;;;;;;;5074368;28;20940;-67
2022/10/07 13:33:14;;;;;;;11.27;3.40;;;;;;;;;;5074604;28;20447;-67
2022/10/07 13:35:41;;;;;;;7.40;2.60;;;;;;;;;;5073968;28;20466;-67
2022/10/07 13:38:20;;;;;;;7.23;3.50;;;;;;;;;;5074521;28;20446;-67
2022/10/07 13:40:53;;;;;;;7.60;2.70;;;;;;;;;;5074767;28;20829;-67
2022/10/07 13:43:25;;;;;;;10.50;3.43;;;;;;;;;;5074665;28;20433;-67
2022/10/07 13:45:52;;;;;;;7.70;2.97;;;;;;;;;;5091232;28;20895;-67
2022/10/07 13:48:22;;;;;;;14.43;3.90;;;;;;;;;;5094220;28;20438;-67
2022/10/07 13:50:50;;;;;;;12.90;3.60;;;;;;;;;;5094500;28;20437;-67
2022/10/07 13:53:20;;;;;;;14.80;3.00;;;;;;;;;;5094401;28;20442;-67
2022/10/07 13:55:48;;;;;;;6.53;2.70;;;;;;;;;;5094479;28;20843;-67
2022/10/07 13:58:15;;;;;;;6.90;2.67;;;;;;;;;;5094331;28;20442;-67
2022/10/07 14:00:45;;;;;;;8.00;3.00;;;;;;;;;;5094066;28;20449;-67
2022/10/07 14:03:16;;;;;;;6.23;2.93;;;;;;;;;;5094193;28;20445;-67
2022/10/07 14:05:50;;;;;;;14.87;3.10;;;;;;;;;;5094104;28;20468;-67
2022/10/07 14:08:20;;;;;;;9.37;3.00;;;;;;;;;;5094136;28;20779;-67
2022/10/07 14:10:51;;;;;;;6.07;2.73;;;;;;;;;;5094105;28;20445;-68
2022/10/07 14:13:19;;;;;;;10.60;3.63;;;;;;;;;;5093895;28;20474;-67
2022/10/07 14:15:47;;;;;;;16.77;3.43;;;;;;;;;;5093805;28;20821;-67
2022/10/07 14:18:15;;;;;;;10.47;3.30;;;;;;;;;;5093713;28;20441;-67
2022/10/07 14:20:44;;;;;;;7.30;2.80;;;;;;;;;;5093981;28;20476;-67
2022/10/07 14:23:20;;;;;;;5.73;2.60;;;;;;;;;;5093691;28;20445;-67
2022/10/07 14:25:53;;;;;;;11.83;3.70;;;;;;;;;;5093986;28;20502;-67
2022/10/07 14:28:21;;;;;;;9.77;3.30;;;;;;;;;;5093399;28;20448;-67
2022/10/07 14:37:00;;;;;;;7.87;3.80;;;;;;;;;;5093400;28;20506;-67
2022/10/07 14:39:32;;;;;;;9.43;2.80;;;;;;;;;;5093397;28;20424;-67
2022/10/07 14:42:00;;;;;;;9.63;2.60;;;;;;;;;;5093496;28;20429;-67
2022/10/07 14:44:28;;;;;;;16.03;2.93;;;;;;;;;;5093433;28;20446;-67
2022/10/07 14:47:02;;;;;;;9.90;2.90;;;;;;;;;;5093546;28;20462;-67
2022/10/07 14:49:30;;;;;;;10.17;3.30;;;;;;;;;;5093593;28;20811;-67
2022/10/07 14:51:57;;;;;;;10.40;2.80;;;;;;;;;;5092958;28;20800;-67
2022/10/07 14:54:25;;;;;;;11.40;3.70;;;;;;;;;;5093065;28;20447;-67
2022/10/07 14:56:53;;;;;;;11.27;3.97;;;;;;;;;;5093192;28;20484;-67
2022/10/07 14:59:21;;;;;;;5.43;2.40;;;;;;;;;;5093004;28;20538;-67
2022/10/07 15:01:48;;;;;;;13.50;3.20;;;;;;;;;;5057497;28;20447;-67
2022/10/07 15:04:15;;;;;;;8.40;2.70;;;;;;;;;;5053325;28;20451;-67